sensor_id;sensor_type;location;lat;lon;timestamp;P1;durP1;ratioP1;P2;durP2;ratioP2
80411;SDS011;69749;42.684;23.360;2023-11-21T00:00:15;27.02;;;13.48;;
80411;SDS011;69749;42.684;23.360;2023-11-21T00:02:41;28.00;;;13.55;;
80411;SDS011;69749;42.684;23.360;2023-11-21T00:05:08;26.30;;;14.00;;
80411;SDS011;69749;42.684;23.360;2023-11-21T00:07:35;23.15;;;13.40;;
80411;SDS011;69749;42.684;23.360;2023-11-21T00:10:01;22.95;;;12.23;;
80411;SDS011;69749;42.684;23.360;2023-11-21T00:12:27;23.48;;;13.07;;
80411;SDS011;69749;42.684;23.360;2023-11-21T00:14:54;24.40;;;13.93;;
80411;SDS011;69749;42.684;23.360;2023-11-21T00:17:20;22.70;;;13.32;;
80411;SDS011;69749;42.684;23.360;2023-11-21T00:19:45;25.42;;;13.50;;
80411;SDS011;69749;42.684;23.360;2023-11-21T00:22:11;26.98;;;12.77;;
80411;SDS011;69749;42.684;23.360;2023-11-21T00:24:36;21.80;;;11.75;;
80411;SDS011;69749;42.684;23.360;2023-11-21T00:27:01;27.02;;;12.85;;
80411;SDS011;69749;42.684;23.360;2023-11-21T00:29:27;27.65;;;13.43;;
80411;SDS011;69749;42.684;23.360;2023-11-21T00:31:52;22.27;;;12.70;;
80411;SDS011;69749;42.684;23.360;2023-11-21T00:34:18;21.15;;;11.45;;
80411;SDS011;69749;42.684;23.360;2023-11-21T00:36:44;21.70;;;12.10;;
80411;SDS011;69749;42.684;23.360;2023-11-21T00:39:10;22.60;;;12.48;;
80411;SDS011;69749;42.684;23.360;2023-11-21T00:41:36;24.90;;;14.95;;
80411;SDS011;69749;42.684;23.360;2023-11-21T00:44:02;25.05;;;13.95;;
80411;SDS011;69749;42.684;23.360;2023-11-21T00:46:28;30.48;;;13.65;;
80411;SDS011;69749;42.684;23.360;2023-11-21T00:48:54;24.75;;;13.80;;
80411;SDS011;69749;42.684;23.360;2023-11-21T00:51:20;35.58;;;19.17;;
80411;SDS011;69749;42.684;23.360;2023-11-21T00:53:46;53.28;;;24.35;;
80411;SDS011;69749;42.684;23.360;2023-11-21T00:56:12;32.97;;;17.33;;
80411;SDS011;69749;42.684;23.360;2023-11-21T00:58:38;29.67;;;17.10;;
80411;SDS011;69749;42.684;23.360;2023-11-21T01:01:04;34.10;;;19.10;;
80411;SDS011;69749;42.684;23.360;2023-11-21T01:03:29;40.33;;;19.73;;
80411;SDS011;69749;42.684;23.360;2023-11-21T01:05:55;37.47;;;19.75;;
80411;SDS011;69749;42.684;23.360;2023-11-21T01:08:21;33.65;;;18.30;;
80411;SDS011;69749;42.684;23.360;2023-11-21T01:10:46;34.60;;;18.60;;
80411;SDS011;69749;42.684;23.360;2023-11-21T01:13:12;37.45;;;19.60;;
80411;SDS011;69749;42.684;23.360;2023-11-21T01:18:05;38.65;;;19.10;;
80411;SDS011;69749;42.684;23.360;2023-11-21T01:20:31;46.10;;;21.63;;
80411;SDS011;69749;42.684;23.360;2023-11-21T01:22:56;48.20;;;24.73;;
80411;SDS011;69749;42.684;23.360;2023-11-21T01:25:21;48.90;;;25.50;;
80411;SDS011;69749;42.684;23.360;2023-11-21T01:27:47;55.83;;;25.92;;
80411;SDS011;69749;42.684;23.360;2023-11-21T01:30:12;50.42;;;25.48;;
80411;SDS011;69749;42.684;23.360;2023-11-21T01:32:38;48.90;;;23.80;;
80411;SDS011;69749;42.684;23.360;2023-11-21T01:35:04;43.38;;;22.80;;
80411;SDS011;69749;42.684;23.360;2023-11-21T01:37:31;42.97;;;23.00;;
80411;SDS011;69749;42.684;23.360;2023-11-21T01:39:58;49.90;;;25.70;;
80411;SDS011;69749;42.684;23.360;2023-11-21T01:42:24;43.13;;;23.30;;
80411;SDS011;69749;42.684;23.360;2023-11-21T01:44:49;47.63;;;24.05;;
80411;SDS011;69749;42.684;23.360;2023-11-21T01:47:15;51.63;;;24.85;;
80411;SDS011;69749;42.684;23.360;2023-11-21T01:49:45;49.42;;;23.60;;
80411;SDS011;69749;42.684;23.360;2023-11-21T01:52:11;48.92;;;23.23;;
80411;SDS011;69749;42.684;23.360;2023-11-21T01:54:37;48.85;;;23.23;;
80411;SDS011;69749;42.684;23.360;2023-11-21T01:57:03;38.80;;;22.77;;
80411;SDS011;69749;42.684;23.360;2023-11-21T01:59:34;45.45;;;22.30;;
80411;SDS011;69749;42.684;23.360;2023-11-21T02:02:04;46.17;;;23.77;;
80411;SDS011;69749;42.684;23.360;2023-11-21T02:04:33;45.97;;;22.15;;
80411;SDS011;69749;42.684;23.360;2023-11-21T02:07:00;40.65;;;21.90;;
80411;SDS011;69749;42.684;23.360;2023-11-21T02:09:26;39.58;;;21.50;;
80411;SDS011;69749;42.684;23.360;2023-11-21T02:11:53;46.80;;;23.48;;
80411;SDS011;69749;42.684;23.360;2023-11-21T02:14:19;44.20;;;22.27;;
80411;SDS011;69749;42.684;23.360;2023-11-21T02:16:48;39.78;;;21.13;;
80411;SDS011;69749;42.684;23.360;2023-11-21T02:19:18;48.17;;;22.30;;
80411;SDS011;69749;42.684;23.360;2023-11-21T02:21:45;43.00;;;21.25;;
80411;SDS011;69749;42.684;23.360;2023-11-21T02:24:13;42.75;;;21.17;;
80411;SDS011;69749;42.684;23.360;2023-11-21T02:26:38;35.85;;;19.90;;
80411;SDS011;69749;42.684;23.360;2023-11-21T02:29:04;40.72;;;20.58;;
80411;SDS011;69749;42.684;23.360;2023-11-21T02:31:29;42.40;;;20.90;;
80411;SDS011;69749;42.684;23.360;2023-11-21T02:33:55;37.78;;;18.90;;
80411;SDS011;69749;42.684;23.360;2023-11-21T02:36:20;34.67;;;18.52;;
80411;SDS011;69749;42.684;23.360;2023-11-21T02:38:46;33.53;;;18.80;;
80411;SDS011;69749;42.684;23.360;2023-11-21T02:41:12;32.80;;;19.35;;
80411;SDS011;69749;42.684;23.360;2023-11-21T02:43:38;36.85;;;18.45;;
80411;SDS011;69749;42.684;23.360;2023-11-21T02:46:03;34.63;;;18.58;;
80411;SDS011;69749;42.684;23.360;2023-11-21T02:48:29;38.13;;;19.17;;
80411;SDS011;69749;42.684;23.360;2023-11-21T02:50:56;29.58;;;17.38;;
80411;SDS011;69749;42.684;23.360;2023-11-21T02:53:21;37.00;;;19.10;;
80411;SDS011;69749;42.684;23.360;2023-11-21T02:55:47;31.10;;;17.70;;
80411;SDS011;69749;42.684;23.360;2023-11-21T02:58:12;38.88;;;19.23;;
80411;SDS011;69749;42.684;23.360;2023-11-21T03:00:38;36.78;;;18.67;;
80411;SDS011;69749;42.684;23.360;2023-11-21T03:03:05;37.92;;;19.35;;
80411;SDS011;69749;42.684;23.360;2023-11-21T03:05:30;36.30;;;18.92;;
80411;SDS011;69749;42.684;23.360;2023-11-21T03:07:56;33.28;;;17.95;;
80411;SDS011;69749;42.684;23.360;2023-11-21T03:10:21;40.47;;;18.25;;
80411;SDS011;69749;42.684;23.360;2023-11-21T03:12:48;33.22;;;16.77;;
80411;SDS011;69749;42.684;23.360;2023-11-21T03:15:13;28.88;;;17.20;;
80411;SDS011;69749;42.684;23.360;2023-11-21T03:17:39;32.45;;;17.42;;
80411;SDS011;69749;42.684;23.360;2023-11-21T03:20:05;35.90;;;18.77;;
80411;SDS011;69749;42.684;23.360;2023-11-21T03:22:31;30.38;;;17.48;;
80411;SDS011;69749;42.684;23.360;2023-11-21T03:24:57;38.45;;;19.35;;
80411;SDS011;69749;42.684;23.360;2023-11-21T03:27:23;33.80;;;19.15;;
80411;SDS011;69749;42.684;23.360;2023-11-21T03:29:48;32.42;;;18.55;;
80411;SDS011;69749;42.684;23.360;2023-11-21T03:32:14;31.35;;;16.73;;
80411;SDS011;69749;42.684;23.360;2023-11-21T03:34:53;33.85;;;18.33;;
80411;SDS011;69749;42.684;23.360;2023-11-21T03:37:23;35.70;;;18.50;;
80411;SDS011;69749;42.684;23.360;2023-11-21T03:39:49;35.42;;;18.23;;
80411;SDS011;69749;42.684;23.360;2023-11-21T03:42:15;30.98;;;17.67;;
80411;SDS011;69749;42.684;23.360;2023-11-21T03:44:41;32.88;;;17.80;;
80411;SDS011;69749;42.684;23.360;2023-11-21T03:47:06;29.30;;;16.75;;
80411;SDS011;69749;42.684;23.360;2023-11-21T03:49:32;29.23;;;16.38;;
80411;SDS011;69749;42.684;23.360;2023-11-21T03:51:58;29.40;;;15.00;;
80411;SDS011;69749;42.684;23.360;2023-11-21T03:54:24;27.50;;;15.73;;
80411;SDS011;69749;42.684;23.360;2023-11-21T03:56:49;25.48;;;13.52;;
80411;SDS011;69749;42.684;23.360;2023-11-21T03:59:15;22.00;;;13.10;;
80411;SDS011;69749;42.684;23.360;2023-11-21T04:01:40;24.58;;;12.82;;
80411;SDS011;69749;42.684;23.360;2023-11-21T04:04:06;26.02;;;14.73;;
80411;SDS011;69749;42.684;23.360;2023-11-21T04:06:31;28.23;;;14.80;;
80411;SDS011;69749;42.684;23.360;2023-11-21T04:08:58;20.85;;;13.60;;
80411;SDS011;69749;42.684;23.360;2023-11-21T04:11:23;29.17;;;15.20;;
80411;SDS011;69749;42.684;23.360;2023-11-21T04:13:49;27.85;;;16.70;;
80411;SDS011;69749;42.684;23.360;2023-11-21T04:16:15;30.45;;;16.05;;
80411;SDS011;69749;42.684;23.360;2023-11-21T04:18:40;29.23;;;16.55;;
80411;SDS011;69749;42.684;23.360;2023-11-21T04:21:06;27.02;;;16.50;;
80411;SDS011;69749;42.684;23.360;2023-11-21T04:23:32;26.08;;;15.65;;
80411;SDS011;69749;42.684;23.360;2023-11-21T04:25:59;28.60;;;16.25;;
80411;SDS011;69749;42.684;23.360;2023-11-21T04:28:25;29.95;;;16.52;;
80411;SDS011;69749;42.684;23.360;2023-11-21T04:30:50;27.48;;;15.18;;
80411;SDS011;69749;42.684;23.360;2023-11-21T04:33:16;22.38;;;14.50;;
80411;SDS011;69749;42.684;23.360;2023-11-21T04:35:41;31.38;;;16.50;;
80411;SDS011;69749;42.684;23.360;2023-11-21T04:38:07;28.45;;;15.50;;
80411;SDS011;69749;42.684;23.360;2023-11-21T04:40:32;24.83;;;15.05;;
80411;SDS011;69749;42.684;23.360;2023-11-21T04:42:58;27.08;;;14.85;;
80411;SDS011;69749;42.684;23.360;2023-11-21T04:45:23;25.63;;;15.48;;
80411;SDS011;69749;42.684;23.360;2023-11-21T04:47:49;24.95;;;15.07;;
80411;SDS011;69749;42.684;23.360;2023-11-21T04:50:14;24.67;;;12.77;;
80411;SDS011;69749;42.684;23.360;2023-11-21T04:52:39;21.25;;;12.52;;
80411;SDS011;69749;42.684;23.360;2023-11-21T04:55:05;23.63;;;12.48;;
80411;SDS011;69749;42.684;23.360;2023-11-21T04:57:34;26.50;;;13.65;;
80411;SDS011;69749;42.684;23.360;2023-11-21T05:00:00;25.65;;;13.45;;
80411;SDS011;69749;42.684;23.360;2023-11-21T05:02:26;22.20;;;11.82;;
80411;SDS011;69749;42.684;23.360;2023-11-21T05:04:51;20.80;;;12.85;;
80411;SDS011;69749;42.684;23.360;2023-11-21T05:07:18;28.83;;;15.38;;
80411;SDS011;69749;42.684;23.360;2023-11-21T05:09:43;28.08;;;14.63;;
80411;SDS011;69749;42.684;23.360;2023-11-21T05:12:11;26.67;;;14.07;;
80411;SDS011;69749;42.684;23.360;2023-11-21T05:14:36;26.75;;;14.70;;
80411;SDS011;69749;42.684;23.360;2023-11-21T05:17:02;27.23;;;15.68;;
80411;SDS011;69749;42.684;23.360;2023-11-21T05:19:29;27.35;;;14.85;;
80411;SDS011;69749;42.684;23.360;2023-11-21T05:21:54;27.63;;;15.00;;
80411;SDS011;69749;42.684;23.360;2023-11-21T05:24:20;29.20;;;15.25;;
80411;SDS011;69749;42.684;23.360;2023-11-21T05:26:45;24.83;;;13.63;;
80411;SDS011;69749;42.684;23.360;2023-11-21T05:29:11;26.85;;;13.57;;
80411;SDS011;69749;42.684;23.360;2023-11-21T05:31:36;25.88;;;14.77;;
80411;SDS011;69749;42.684;23.360;2023-11-21T05:34:03;25.05;;;13.82;;
80411;SDS011;69749;42.684;23.360;2023-11-21T05:36:30;26.73;;;14.63;;
80411;SDS011;69749;42.684;23.360;2023-11-21T05:38:56;23.63;;;12.95;;
80411;SDS011;69749;42.684;23.360;2023-11-21T05:41:21;25.52;;;13.20;;
80411;SDS011;69749;42.684;23.360;2023-11-21T05:43:47;20.98;;;13.13;;
80411;SDS011;69749;42.684;23.360;2023-11-21T05:46:12;24.20;;;14.23;;
80411;SDS011;69749;42.684;23.360;2023-11-21T05:48:38;21.52;;;12.95;;
80411;SDS011;69749;42.684;23.360;2023-11-21T05:51:04;24.33;;;13.32;;
80411;SDS011;69749;42.684;23.360;2023-11-21T05:53:31;23.45;;;13.15;;
80411;SDS011;69749;42.684;23.360;2023-11-21T05:55:56;24.92;;;12.35;;
80411;SDS011;69749;42.684;23.360;2023-11-21T05:58:22;24.98;;;14.32;;
80411;SDS011;69749;42.684;23.360;2023-11-21T06:00:47;26.27;;;15.23;;
80411;SDS011;69749;42.684;23.360;2023-11-21T06:03:13;28.27;;;16.17;;
80411;SDS011;69749;42.684;23.360;2023-11-21T06:05:38;25.55;;;16.30;;
80411;SDS011;69749;42.684;23.360;2023-11-21T06:08:04;29.77;;;17.88;;
80411;SDS011;69749;42.684;23.360;2023-11-21T06:10:29;24.35;;;16.25;;
80411;SDS011;69749;42.684;23.360;2023-11-21T06:12:55;30.77;;;18.30;;
80411;SDS011;69749;42.684;23.360;2023-11-21T06:15:20;28.83;;;17.92;;
80411;SDS011;69749;42.684;23.360;2023-11-21T06:17:48;29.38;;;17.63;;
80411;SDS011;69749;42.684;23.360;2023-11-21T06:20:17;28.45;;;17.83;;
80411;SDS011;69749;42.684;23.360;2023-11-21T06:22:44;32.08;;;17.77;;
80411;SDS011;69749;42.684;23.360;2023-11-21T06:25:11;29.15;;;17.55;;
80411;SDS011;69749;42.684;23.360;2023-11-21T06:27:41;30.98;;;18.63;;
80411;SDS011;69749;42.684;23.360;2023-11-21T06:30:09;31.90;;;15.48;;
80411;SDS011;69749;42.684;23.360;2023-11-21T06:32:36;28.17;;;17.92;;
80411;SDS011;69749;42.684;23.360;2023-11-21T06:35:03;28.88;;;16.65;;
80411;SDS011;69749;42.684;23.360;2023-11-21T06:37:29;24.52;;;14.25;;
80411;SDS011;69749;42.684;23.360;2023-11-21T06:39:57;22.23;;;13.20;;
80411;SDS011;69749;42.684;23.360;2023-11-21T06:42:23;23.20;;;12.55;;
80411;SDS011;69749;42.684;23.360;2023-11-21T06:44:49;24.00;;;14.60;;
80411;SDS011;69749;42.684;23.360;2023-11-21T06:47:19;23.02;;;14.25;;
80411;SDS011;69749;42.684;23.360;2023-11-21T06:49:50;24.55;;;15.93;;
80411;SDS011;69749;42.684;23.360;2023-11-21T06:52:16;26.30;;;16.63;;
80411;SDS011;69749;42.684;23.360;2023-11-21T06:54:41;25.23;;;16.25;;
80411;SDS011;69749;42.684;23.360;2023-11-21T06:57:07;25.88;;;15.02;;
80411;SDS011;69749;42.684;23.360;2023-11-21T06:59:33;26.48;;;17.73;;
80411;SDS011;69749;42.684;23.360;2023-11-21T07:01:58;24.15;;;16.08;;
80411;SDS011;69749;42.684;23.360;2023-11-21T07:04:24;24.35;;;15.68;;
80411;SDS011;69749;42.684;23.360;2023-11-21T07:06:51;26.45;;;17.88;;
80411;SDS011;69749;42.684;23.360;2023-11-21T07:09:16;27.75;;;17.83;;
80411;SDS011;69749;42.684;23.360;2023-11-21T07:11:42;29.70;;;17.33;;
80411;SDS011;69749;42.684;23.360;2023-11-21T07:14:07;28.42;;;16.58;;
80411;SDS011;69749;42.684;23.360;2023-11-21T07:16:37;26.85;;;16.27;;
80411;SDS011;69749;42.684;23.360;2023-11-21T07:19:06;22.80;;;14.63;;
80411;SDS011;69749;42.684;23.360;2023-11-21T07:21:32;18.58;;;13.52;;
80411;SDS011;69749;42.684;23.360;2023-11-21T07:23:59;20.80;;;12.10;;
80411;SDS011;69749;42.684;23.360;2023-11-21T07:26:26;20.88;;;13.13;;
80411;SDS011;69749;42.684;23.360;2023-11-21T07:28:52;19.17;;;12.25;;
80411;SDS011;69749;42.684;23.360;2023-11-21T07:31:17;19.92;;;11.35;;
80411;SDS011;69749;42.684;23.360;2023-11-21T07:33:44;17.27;;;11.52;;
80411;SDS011;69749;42.684;23.360;2023-11-21T07:36:12;16.35;;;11.35;;
80411;SDS011;69749;42.684;23.360;2023-11-21T07:38:38;17.85;;;10.90;;
80411;SDS011;69749;42.684;23.360;2023-11-21T07:41:04;20.52;;;10.75;;
80411;SDS011;69749;42.684;23.360;2023-11-21T07:43:29;15.95;;;10.52;;
80411;SDS011;69749;42.684;23.360;2023-11-21T07:46:00;21.02;;;11.75;;
80411;SDS011;69749;42.684;23.360;2023-11-21T07:48:29;19.60;;;11.18;;
80411;SDS011;69749;42.684;23.360;2023-11-21T07:50:58;15.20;;;10.40;;
80411;SDS011;69749;42.684;23.360;2023-11-21T07:53:26;30.88;;;21.13;;
80411;SDS011;69749;42.684;23.360;2023-11-21T07:55:55;15.70;;;10.88;;
80411;SDS011;69749;42.684;23.360;2023-11-21T07:58:23;17.85;;;11.32;;
80411;SDS011;69749;42.684;23.360;2023-11-21T08:00:49;24.15;;;12.20;;
80411;SDS011;69749;42.684;23.360;2023-11-21T08:03:15;21.20;;;13.07;;
80411;SDS011;69749;42.684;23.360;2023-11-21T08:05:41;20.10;;;12.13;;
80411;SDS011;69749;42.684;23.360;2023-11-21T08:08:07;23.40;;;13.20;;
80411;SDS011;69749;42.684;23.360;2023-11-21T08:10:33;21.67;;;15.65;;
80411;SDS011;69749;42.684;23.360;2023-11-21T08:13:00;24.35;;;14.70;;
80411;SDS011;69749;42.684;23.360;2023-11-21T08:15:26;25.92;;;16.25;;
80411;SDS011;69749;42.684;23.360;2023-11-21T08:17:51;23.33;;;15.00;;
80411;SDS011;69749;42.684;23.360;2023-11-21T08:20:17;30.60;;;16.67;;
80411;SDS011;69749;42.684;23.360;2023-11-21T08:22:43;23.50;;;15.25;;
80411;SDS011;69749;42.684;23.360;2023-11-21T08:25:09;23.67;;;15.52;;
80411;SDS011;69749;42.684;23.360;2023-11-21T08:27:35;21.48;;;13.50;;
80411;SDS011;69749;42.684;23.360;2023-11-21T08:30:02;22.50;;;14.88;;
80411;SDS011;69749;42.684;23.360;2023-11-21T08:32:28;26.17;;;17.40;;
80411;SDS011;69749;42.684;23.360;2023-11-21T08:34:55;30.23;;;19.67;;
80411;SDS011;69749;42.684;23.360;2023-11-21T08:37:21;37.65;;;21.33;;
80411;SDS011;69749;42.684;23.360;2023-11-21T08:39:47;33.42;;;21.85;;
80411;SDS011;69749;42.684;23.360;2023-11-21T08:42:13;34.80;;;20.23;;
80411;SDS011;69749;42.684;23.360;2023-11-21T08:44:39;45.92;;;25.83;;
80411;SDS011;69749;42.684;23.360;2023-11-21T08:47:08;49.90;;;29.60;;
80411;SDS011;69749;42.684;23.360;2023-11-21T08:49:33;32.28;;;21.35;;
80411;SDS011;69749;42.684;23.360;2023-11-21T08:51:59;34.28;;;20.98;;
80411;SDS011;69749;42.684;23.360;2023-11-21T08:54:25;36.33;;;22.38;;
80411;SDS011;69749;42.684;23.360;2023-11-21T08:56:54;36.65;;;23.83;;
80411;SDS011;69749;42.684;23.360;2023-11-21T08:59:20;47.20;;;24.35;;
80411;SDS011;69749;42.684;23.360;2023-11-21T09:01:46;47.47;;;24.40;;
80411;SDS011;69749;42.684;23.360;2023-11-21T09:04:12;42.30;;;25.85;;
80411;SDS011;69749;42.684;23.360;2023-11-21T09:06:38;49.58;;;26.02;;
80411;SDS011;69749;42.684;23.360;2023-11-21T09:09:04;43.58;;;26.67;;
80411;SDS011;69749;42.684;23.360;2023-11-21T09:11:31;46.00;;;26.25;;
80411;SDS011;69749;42.684;23.360;2023-11-21T09:13:59;38.00;;;25.48;;
80411;SDS011;69749;42.684;23.360;2023-11-21T09:16:25;44.47;;;26.58;;
80411;SDS011;69749;42.684;23.360;2023-11-21T09:18:50;44.53;;;27.38;;
80411;SDS011;69749;42.684;23.360;2023-11-21T09:21:16;49.65;;;28.55;;
80411;SDS011;69749;42.684;23.360;2023-11-21T09:23:42;45.65;;;26.65;;
80411;SDS011;69749;42.684;23.360;2023-11-21T09:26:11;47.78;;;28.15;;
80411;SDS011;69749;42.684;23.360;2023-11-21T09:28:36;44.22;;;27.92;;
80411;SDS011;69749;42.684;23.360;2023-11-21T09:31:07;43.42;;;26.50;;
80411;SDS011;69749;42.684;23.360;2023-11-21T09:33:34;49.38;;;29.30;;
80411;SDS011;69749;42.684;23.360;2023-11-21T09:35:59;45.10;;;26.40;;
80411;SDS011;69749;42.684;23.360;2023-11-21T09:38:25;37.15;;;24.67;;
80411;SDS011;69749;42.684;23.360;2023-11-21T09:40:50;43.42;;;25.55;;
80411;SDS011;69749;42.684;23.360;2023-11-21T09:43:17;35.03;;;22.60;;
80411;SDS011;69749;42.684;23.360;2023-11-21T09:45:54;31.80;;;19.25;;
80411;SDS011;69749;42.684;23.360;2023-11-21T09:48:24;25.13;;;17.50;;
80411;SDS011;69749;42.684;23.360;2023-11-21T09:50:51;32.83;;;18.52;;
80411;SDS011;69749;42.684;23.360;2023-11-21T09:53:19;24.92;;;15.85;;
80411;SDS011;69749;42.684;23.360;2023-11-21T09:55:46;27.77;;;15.57;;
80411;SDS011;69749;42.684;23.360;2023-11-21T09:58:15;23.25;;;13.70;;
80411;SDS011;69749;42.684;23.360;2023-11-21T10:00:41;30.25;;;19.15;;
80411;SDS011;69749;42.684;23.360;2023-11-21T10:03:08;24.35;;;12.65;;
80411;SDS011;69749;42.684;23.360;2023-11-21T10:05:35;19.83;;;13.80;;
80411;SDS011;69749;42.684;23.360;2023-11-21T10:08:01;19.85;;;14.30;;
80411;SDS011;69749;42.684;23.360;2023-11-21T10:10:29;21.88;;;12.63;;
80411;SDS011;69749;42.684;23.360;2023-11-21T10:12:57;24.98;;;13.75;;
80411;SDS011;69749;42.684;23.360;2023-11-21T10:15:28;22.67;;;12.50;;
80411;SDS011;69749;42.684;23.360;2023-11-21T10:17:55;20.90;;;12.15;;
80411;SDS011;69749;42.684;23.360;2023-11-21T10:20:21;23.13;;;12.98;;
80411;SDS011;69749;42.684;23.360;2023-11-21T10:22:49;25.40;;;12.82;;
80411;SDS011;69749;42.684;23.360;2023-11-21T10:25:15;20.40;;;12.38;;
80411;SDS011;69749;42.684;23.360;2023-11-21T10:27:40;17.15;;;11.40;;
80411;SDS011;69749;42.684;23.360;2023-11-21T10:30:07;17.65;;;11.15;;
80411;SDS011;69749;42.684;23.360;2023-11-21T10:32:39;17.90;;;11.18;;
80411;SDS011;69749;42.684;23.360;2023-11-21T10:35:06;17.63;;;11.65;;
80411;SDS011;69749;42.684;23.360;2023-11-21T10:37:35;17.23;;;10.88;;
80411;SDS011;69749;42.684;23.360;2023-11-21T10:40:06;16.23;;;9.88;;
80411;SDS011;69749;42.684;23.360;2023-11-21T10:42:33;16.27;;;10.40;;
80411;SDS011;69749;42.684;23.360;2023-11-21T10:44:58;17.38;;;10.60;;
80411;SDS011;69749;42.684;23.360;2023-11-21T10:47:25;14.93;;;9.88;;
80411;SDS011;69749;42.684;23.360;2023-11-21T10:49:52;16.48;;;10.30;;
80411;SDS011;69749;42.684;23.360;2023-11-21T10:52:20;15.43;;;9.18;;
80411;SDS011;69749;42.684;23.360;2023-11-21T10:54:46;18.90;;;11.00;;
80411;SDS011;69749;42.684;23.360;2023-11-21T10:57:13;15.02;;;9.57;;
80411;SDS011;69749;42.684;23.360;2023-11-21T10:59:42;16.80;;;10.10;;
80411;SDS011;69749;42.684;23.360;2023-11-21T11:02:21;18.80;;;11.15;;
80411;SDS011;69749;42.684;23.360;2023-11-21T11:04:57;19.63;;;11.63;;
80411;SDS011;69749;42.684;23.360;2023-11-21T11:07:27;22.13;;;14.05;;
80411;SDS011;69749;42.684;23.360;2023-11-21T11:09:58;21.40;;;13.82;;
80411;SDS011;69749;42.684;23.360;2023-11-21T11:12:24;26.48;;;13.73;;
80411;SDS011;69749;42.684;23.360;2023-11-21T11:14:50;18.20;;;12.18;;
80411;SDS011;69749;42.684;23.360;2023-11-21T11:17:18;27.10;;;13.43;;
80411;SDS011;69749;42.684;23.360;2023-11-21T11:19:46;21.02;;;12.68;;
80411;SDS011;69749;42.684;23.360;2023-11-21T11:25:15;22.25;;;12.57;;
80411;SDS011;69749;42.684;23.360;2023-11-21T11:27:59;21.02;;;12.15;;
80411;SDS011;69749;42.684;23.360;2023-11-21T11:35:52;21.30;;;12.45;;
80411;SDS011;69749;42.684;23.360;2023-11-21T11:38:31;21.83;;;12.98;;
80411;SDS011;69749;42.684;23.360;2023-11-21T11:41:04;21.42;;;13.80;;
80411;SDS011;69749;42.684;23.360;2023-11-21T11:43:31;19.90;;;12.60;;
80411;SDS011;69749;42.684;23.360;2023-11-21T11:46:09;21.60;;;13.07;;
80411;SDS011;69749;42.684;23.360;2023-11-21T11:48:39;24.85;;;14.45;;
80411;SDS011;69749;42.684;23.360;2023-11-21T11:51:10;25.98;;;14.60;;
80411;SDS011;69749;42.684;23.360;2023-11-21T11:53:39;28.38;;;16.80;;
80411;SDS011;69749;42.684;23.360;2023-11-21T11:58:43;25.77;;;13.90;;
80411;SDS011;69749;42.684;23.360;2023-11-21T12:01:10;24.98;;;14.70;;
80411;SDS011;69749;42.684;23.360;2023-11-21T12:03:37;21.90;;;12.63;;
80411;SDS011;69749;42.684;23.360;2023-11-21T12:06:02;25.27;;;14.13;;
80411;SDS011;69749;42.684;23.360;2023-11-21T12:08:28;29.25;;;16.77;;
80411;SDS011;69749;42.684;23.360;2023-11-21T12:10:56;29.00;;;16.52;;
80411;SDS011;69749;42.684;23.360;2023-11-21T12:13:22;32.42;;;18.50;;
80411;SDS011;69749;42.684;23.360;2023-11-21T12:15:48;32.90;;;19.55;;
80411;SDS011;69749;42.684;23.360;2023-11-21T12:18:14;31.83;;;19.75;;
80411;SDS011;69749;42.684;23.360;2023-11-21T12:20:39;37.83;;;20.02;;
80411;SDS011;69749;42.684;23.360;2023-11-21T12:23:06;35.97;;;20.63;;
80411;SDS011;69749;42.684;23.360;2023-11-21T12:25:34;35.17;;;21.60;;
80411;SDS011;69749;42.684;23.360;2023-11-21T12:28:01;38.55;;;21.13;;
80411;SDS011;69749;42.684;23.360;2023-11-21T12:30:33;34.53;;;20.80;;
80411;SDS011;69749;42.684;23.360;2023-11-21T12:33:03;33.60;;;21.05;;
80411;SDS011;69749;42.684;23.360;2023-11-21T12:35:32;35.72;;;20.00;;
80411;SDS011;69749;42.684;23.360;2023-11-21T12:37:59;32.97;;;19.63;;
80411;SDS011;69749;42.684;23.360;2023-11-21T12:40:28;36.63;;;20.83;;
80411;SDS011;69749;42.684;23.360;2023-11-21T12:42:57;34.78;;;18.52;;
80411;SDS011;69749;42.684;23.360;2023-11-21T12:45:24;31.27;;;17.52;;
80411;SDS011;69749;42.684;23.360;2023-11-21T12:47:59;32.03;;;17.95;;
80411;SDS011;69749;42.684;23.360;2023-11-21T12:50:28;30.05;;;16.85;;
80411;SDS011;69749;42.684;23.360;2023-11-21T12:53:03;33.25;;;16.73;;
80411;SDS011;69749;42.684;23.360;2023-11-21T12:55:34;32.95;;;16.92;;
80411;SDS011;69749;42.684;23.360;2023-11-21T12:58:03;31.75;;;17.88;;
80411;SDS011;69749;42.684;23.360;2023-11-21T13:00:39;35.75;;;17.15;;
80411;SDS011;69749;42.684;23.360;2023-11-21T13:03:05;35.70;;;17.95;;
80411;SDS011;69749;42.684;23.360;2023-11-21T13:05:33;31.40;;;17.00;;
80411;SDS011;69749;42.684;23.360;2023-11-21T13:08:02;30.17;;;17.67;;
80411;SDS011;69749;42.684;23.360;2023-11-21T13:10:29;36.20;;;16.85;;
80411;SDS011;69749;42.684;23.360;2023-11-21T13:13:34;33.47;;;17.48;;
80411;SDS011;69749;42.684;23.360;2023-11-21T13:16:01;29.30;;;16.98;;
80411;SDS011;69749;42.684;23.360;2023-11-21T13:18:30;31.08;;;17.88;;
80411;SDS011;69749;42.684;23.360;2023-11-21T13:20:56;37.03;;;19.35;;
80411;SDS011;69749;42.684;23.360;2023-11-21T13:23:27;35.28;;;18.13;;
80411;SDS011;69749;42.684;23.360;2023-11-21T13:25:54;38.40;;;19.00;;
80411;SDS011;69749;42.684;23.360;2023-11-21T13:28:20;33.97;;;17.98;;
80411;SDS011;69749;42.684;23.360;2023-11-21T13:30:47;34.38;;;18.98;;
80411;SDS011;69749;42.684;23.360;2023-11-21T13:33:13;33.33;;;18.02;;
80411;SDS011;69749;42.684;23.360;2023-11-21T13:35:43;31.20;;;17.58;;
80411;SDS011;69749;42.684;23.360;2023-11-21T13:38:14;35.00;;;17.90;;
80411;SDS011;69749;42.684;23.360;2023-11-21T13:40:48;33.95;;;18.55;;
80411;SDS011;69749;42.684;23.360;2023-11-21T13:43:15;28.90;;;18.23;;
80411;SDS011;69749;42.684;23.360;2023-11-21T13:45:46;38.10;;;19.27;;
80411;SDS011;69749;42.684;23.360;2023-11-21T13:48:13;37.47;;;20.42;;
80411;SDS011;69749;42.684;23.360;2023-11-21T13:50:42;38.03;;;20.02;;
80411;SDS011;69749;42.684;23.360;2023-11-21T13:53:23;41.08;;;19.10;;
80411;SDS011;69749;42.684;23.360;2023-11-21T13:55:49;34.30;;;19.90;;
80411;SDS011;69749;42.684;23.360;2023-11-21T13:58:16;33.25;;;19.75;;
80411;SDS011;69749;42.684;23.360;2023-11-21T14:00:47;38.13;;;18.48;;
80411;SDS011;69749;42.684;23.360;2023-11-21T14:03:14;42.22;;;32.72;;
80411;SDS011;69749;42.684;23.360;2023-11-21T14:05:49;43.00;;;26.65;;
80411;SDS011;69749;42.684;23.360;2023-11-21T14:08:19;32.40;;;22.05;;
80411;SDS011;69749;42.684;23.360;2023-11-21T14:10:53;31.77;;;20.85;;
80411;SDS011;69749;42.684;23.360;2023-11-21T14:13:23;33.17;;;20.70;;
80411;SDS011;69749;42.684;23.360;2023-11-21T14:15:49;35.40;;;21.27;;
80411;SDS011;69749;42.684;23.360;2023-11-21T14:18:22;41.17;;;20.52;;
80411;SDS011;69749;42.684;23.360;2023-11-21T14:21:06;34.05;;;20.60;;